sensor_id;sensor_type;location;lat;lon;timestamp;P1;durP1;ratioP1;P2;durP2;ratioP2
43813;SDS011;29669;55.706;37.656;2023-01-30T00:01:31;6.22;;;3.83;;
43813;SDS011;29669;55.706;37.656;2023-01-30T00:04:01;5.70;;;3.28;;
43813;SDS011;29669;55.706;37.656;2023-01-30T00:06:29;6.20;;;3.50;;
43813;SDS011;29669;55.706;37.656;2023-01-30T00:08:56;9.65;;;4.00;;
43813;SDS011;29669;55.706;37.656;2023-01-30T00:11:25;6.07;;;3.53;;
43813;SDS011;29669;55.706;37.656;2023-01-30T00:13:56;6.47;;;3.67;;
43813;SDS011;29669;55.706;37.656;2023-01-30T00:16:29;6.43;;;3.55;;
43813;SDS011;29669;55.706;37.656;2023-01-30T00:18:56;9.55;;;3.97;;
43813;SDS011;29669;55.706;37.656;2023-01-30T00:21:26;7.13;;;3.53;;
43813;SDS011;29669;55.706;37.656;2023-01-30T00:23:56;8.15;;;4.20;;
43813;SDS011;29669;55.706;37.656;2023-01-30T00:26:28;7.38;;;3.35;;
43813;SDS011;29669;55.706;37.656;2023-01-30T00:28:56;7.63;;;4.07;;
43813;SDS011;29669;55.706;37.656;2023-01-30T00:31:23;7.25;;;4.30;;
43813;SDS011;29669;55.706;37.656;2023-01-30T00:33:53;8.30;;;4.00;;
43813;SDS011;29669;55.706;37.656;2023-01-30T00:36:25;7.80;;;4.05;;
43813;SDS011;29669;55.706;37.656;2023-01-30T00:39:01;8.82;;;4.40;;
43813;SDS011;29669;55.706;37.656;2023-01-30T00:41:44;8.95;;;4.72;;
43813;SDS011;29669;55.706;37.656;2023-01-30T00:44:33;10.65;;;3.85;;
43813;SDS011;29669;55.706;37.656;2023-01-30T00:49:47;6.97;;;3.45;;
43813;SDS011;29669;55.706;37.656;2023-01-30T00:55:13;7.35;;;3.47;;
43813;SDS011;29669;55.706;37.656;2023-01-30T00:57:45;4.32;;;3.13;;
43813;SDS011;29669;55.706;37.656;2023-01-30T01:00:13;10.85;;;3.72;;
43813;SDS011;29669;55.706;37.656;2023-01-30T01:02:43;7.75;;;4.20;;
43813;SDS011;29669;55.706;37.656;2023-01-30T01:05:10;7.72;;;4.10;;
43813;SDS011;29669;55.706;37.656;2023-01-30T01:07:40;9.40;;;4.32;;
43813;SDS011;29669;55.706;37.656;2023-01-30T01:10:08;8.50;;;3.42;;
43813;SDS011;29669;55.706;37.656;2023-01-30T01:12:51;11.65;;;4.47;;
43813;SDS011;29669;55.706;37.656;2023-01-30T01:15:19;11.30;;;4.88;;
43813;SDS011;29669;55.706;37.656;2023-01-30T01:17:48;9.60;;;4.47;;
43813;SDS011;29669;55.706;37.656;2023-01-30T01:20:23;8.73;;;4.13;;
43813;SDS011;29669;55.706;37.656;2023-01-30T01:22:58;9.38;;;4.22;;
43813;SDS011;29669;55.706;37.656;2023-01-30T01:25:31;8.50;;;4.97;;
43813;SDS011;29669;55.706;37.656;2023-01-30T01:28:05;8.77;;;3.83;;
43813;SDS011;29669;55.706;37.656;2023-01-30T01:30:36;10.73;;;4.63;;
43813;SDS011;29669;55.706;37.656;2023-01-30T01:33:04;10.65;;;4.50;;
43813;SDS011;29669;55.706;37.656;2023-01-30T01:35:40;10.40;;;5.07;;
43813;SDS011;29669;55.706;37.656;2023-01-30T01:38:32;12.48;;;4.45;;
43813;SDS011;29669;55.706;37.656;2023-01-30T01:41:01;9.48;;;4.53;;
43813;SDS011;29669;55.706;37.656;2023-01-30T01:46:52;8.20;;;4.13;;
43813;SDS011;29669;55.706;37.656;2023-01-30T01:49:29;13.73;;;3.90;;
43813;SDS011;29669;55.706;37.656;2023-01-30T01:52:11;8.63;;;4.72;;
43813;SDS011;29669;55.706;37.656;2023-01-30T01:54:43;6.60;;;3.88;;
43813;SDS011;29669;55.706;37.656;2023-01-30T01:57:19;10.20;;;4.43;;
43813;SDS011;29669;55.706;37.656;2023-01-30T01:59:52;7.53;;;4.03;;
43813;SDS011;29669;55.706;37.656;2023-01-30T02:02:39;11.73;;;5.63;;
43813;SDS011;29669;55.706;37.656;2023-01-30T02:05:10;7.70;;;5.03;;
43813;SDS011;29669;55.706;37.656;2023-01-30T02:10:15;9.95;;;4.63;;
43813;SDS011;29669;55.706;37.656;2023-01-30T02:12:50;11.88;;;5.43;;
43813;SDS011;29669;55.706;37.656;2023-01-30T02:15:21;9.45;;;4.80;;
43813;SDS011;29669;55.706;37.656;2023-01-30T02:17:56;8.95;;;5.10;;
43813;SDS011;29669;55.706;37.656;2023-01-30T02:31:26;10.73;;;4.68;;
43813;SDS011;29669;55.706;37.656;2023-01-30T02:36:53;12.50;;;5.18;;
43813;SDS011;29669;55.706;37.656;2023-01-30T02:39:52;10.40;;;4.90;;
43813;SDS011;29669;55.706;37.656;2023-01-30T02:48:05;11.70;;;5.70;;
43813;SDS011;29669;55.706;37.656;2023-01-30T02:50:43;11.50;;;6.13;;
43813;SDS011;29669;55.706;37.656;2023-01-30T02:53:15;13.18;;;6.32;;
43813;SDS011;29669;55.706;37.656;2023-01-30T02:55:46;11.95;;;6.30;;
43813;SDS011;29669;55.706;37.656;2023-01-30T02:58:23;12.45;;;5.20;;
43813;SDS011;29669;55.706;37.656;2023-01-30T03:12:30;15.75;;;7.35;;
43813;SDS011;29669;55.706;37.656;2023-01-30T03:15:07;11.75;;;5.82;;
43813;SDS011;29669;55.706;37.656;2023-01-30T03:17:41;11.95;;;5.85;;
43813;SDS011;29669;55.706;37.656;2023-01-30T03:20:17;11.18;;;5.35;;
43813;SDS011;29669;55.706;37.656;2023-01-30T03:22:50;13.50;;;6.18;;
43813;SDS011;29669;55.706;37.656;2023-01-30T03:25:22;9.95;;;5.78;;
43813;SDS011;29669;55.706;37.656;2023-01-30T03:27:53;13.27;;;5.30;;
43813;SDS011;29669;55.706;37.656;2023-01-30T03:30:30;8.77;;;4.65;;
43813;SDS011;29669;55.706;37.656;2023-01-30T03:33:07;8.82;;;4.95;;
43813;SDS011;29669;55.706;37.656;2023-01-30T03:35:37;7.85;;;4.47;;
43813;SDS011;29669;55.706;37.656;2023-01-30T03:38:04;9.18;;;4.00;;
43813;SDS011;29669;55.706;37.656;2023-01-30T03:40:32;12.35;;;5.85;;
43813;SDS011;29669;55.706;37.656;2023-01-30T03:42:59;8.98;;;5.15;;
43813;SDS011;29669;55.706;37.656;2023-01-30T03:45:27;11.52;;;5.30;;
43813;SDS011;29669;55.706;37.656;2023-01-30T03:47:55;11.68;;;4.85;;
43813;SDS011;29669;55.706;37.656;2023-01-30T03:50:32;10.45;;;6.03;;
43813;SDS011;29669;55.706;37.656;2023-01-30T03:53:00;11.95;;;5.80;;
43813;SDS011;29669;55.706;37.656;2023-01-30T03:55:29;14.18;;;6.22;;
43813;SDS011;29669;55.706;37.656;2023-01-30T03:57:56;11.20;;;5.15;;
43813;SDS011;29669;55.706;37.656;2023-01-30T04:00:28;10.15;;;5.22;;
43813;SDS011;29669;55.706;37.656;2023-01-30T04:02:55;11.75;;;5.32;;
43813;SDS011;29669;55.706;37.656;2023-01-30T04:05:25;10.23;;;5.38;;
43813;SDS011;29669;55.706;37.656;2023-01-30T04:08:00;9.07;;;5.20;;
43813;SDS011;29669;55.706;37.656;2023-01-30T04:10:27;11.27;;;5.25;;
43813;SDS011;29669;55.706;37.656;2023-01-30T04:12:55;10.57;;;5.30;;
43813;SDS011;29669;55.706;37.656;2023-01-30T04:15:22;11.27;;;5.38;;
43813;SDS011;29669;55.706;37.656;2023-01-30T04:18:08;11.68;;;5.47;;
43813;SDS011;29669;55.706;37.656;2023-01-30T04:20:57;12.50;;;6.30;;
43813;SDS011;29669;55.706;37.656;2023-01-30T04:23:33;11.75;;;5.38;;
43813;SDS011;29669;55.706;37.656;2023-01-30T04:26:02;10.13;;;5.07;;
43813;SDS011;29669;55.706;37.656;2023-01-30T04:28:32;10.55;;;6.07;;
43813;SDS011;29669;55.706;37.656;2023-01-30T04:31:01;10.38;;;5.18;;
43813;SDS011;29669;55.706;37.656;2023-01-30T04:33:51;9.63;;;5.65;;
43813;SDS011;29669;55.706;37.656;2023-01-30T04:36:21;10.18;;;5.97;;
43813;SDS011;29669;55.706;37.656;2023-01-30T04:38:49;11.60;;;5.57;;
43813;SDS011;29669;55.706;37.656;2023-01-30T04:41:19;11.23;;;5.32;;
43813;SDS011;29669;55.706;37.656;2023-01-30T04:43:47;8.63;;;4.55;;
43813;SDS011;29669;55.706;37.656;2023-01-30T04:46:45;11.75;;;5.43;;
43813;SDS011;29669;55.706;37.656;2023-01-30T04:49:13;8.80;;;4.72;;
43813;SDS011;29669;55.706;37.656;2023-01-30T04:51:43;9.07;;;4.38;;
43813;SDS011;29669;55.706;37.656;2023-01-30T04:54:11;13.98;;;6.35;;
43813;SDS011;29669;55.706;37.656;2023-01-30T04:56:40;12.95;;;5.85;;
43813;SDS011;29669;55.706;37.656;2023-01-30T04:59:14;11.05;;;5.00;;
43813;SDS011;29669;55.706;37.656;2023-01-30T05:01:44;13.07;;;6.85;;
43813;SDS011;29669;55.706;37.656;2023-01-30T05:04:13;12.88;;;4.97;;
43813;SDS011;29669;55.706;37.656;2023-01-30T05:06:44;9.48;;;5.82;;
43813;SDS011;29669;55.706;37.656;2023-01-30T05:09:14;14.27;;;5.55;;
43813;SDS011;29669;55.706;37.656;2023-01-30T05:11:44;10.43;;;5.00;;
43813;SDS011;29669;55.706;37.656;2023-01-30T05:14:12;11.63;;;6.05;;
43813;SDS011;29669;55.706;37.656;2023-01-30T05:16:40;13.20;;;5.68;;
43813;SDS011;29669;55.706;37.656;2023-01-30T05:19:08;9.02;;;4.93;;
43813;SDS011;29669;55.706;37.656;2023-01-30T05:21:41;16.13;;;7.28;;
43813;SDS011;29669;55.706;37.656;2023-01-30T05:24:12;10.00;;;5.20;;
43813;SDS011;29669;55.706;37.656;2023-01-30T05:26:40;10.15;;;5.10;;
43813;SDS011;29669;55.706;37.656;2023-01-30T05:29:08;14.80;;;6.32;;
43813;SDS011;29669;55.706;37.656;2023-01-30T05:31:39;8.88;;;4.07;;
43813;SDS011;29669;55.706;37.656;2023-01-30T05:34:09;11.10;;;5.32;;
43813;SDS011;29669;55.706;37.656;2023-01-30T05:36:38;9.48;;;5.22;;
43813;SDS011;29669;55.706;37.656;2023-01-30T05:39:06;8.75;;;4.80;;
43813;SDS011;29669;55.706;37.656;2023-01-30T05:41:41;9.68;;;4.80;;
43813;SDS011;29669;55.706;37.656;2023-01-30T05:44:11;9.95;;;4.57;;
43813;SDS011;29669;55.706;37.656;2023-01-30T05:46:39;10.68;;;5.15;;
43813;SDS011;29669;55.706;37.656;2023-01-30T05:49:09;12.73;;;5.63;;
43813;SDS011;29669;55.706;37.656;2023-01-30T05:51:40;13.35;;;6.82;;
43813;SDS011;29669;55.706;37.656;2023-01-30T05:54:11;14.30;;;7.45;;
43813;SDS011;29669;55.706;37.656;2023-01-30T05:56:41;8.10;;;4.60;;
43813;SDS011;29669;55.706;37.656;2023-01-30T05:59:11;11.73;;;4.97;;
43813;SDS011;29669;55.706;37.656;2023-01-30T06:01:41;15.85;;;6.10;;
43813;SDS011;29669;55.706;37.656;2023-01-30T06:04:10;10.30;;;6.00;;
43813;SDS011;29669;55.706;37.656;2023-01-30T06:06:40;17.08;;;6.43;;
43813;SDS011;29669;55.706;37.656;2023-01-30T06:09:10;12.27;;;5.78;;
43813;SDS011;29669;55.706;37.656;2023-01-30T06:11:41;13.48;;;5.85;;
43813;SDS011;29669;55.706;37.656;2023-01-30T06:14:08;10.93;;;4.90;;
43813;SDS011;29669;55.706;37.656;2023-01-30T06:16:38;9.75;;;5.22;;
43813;SDS011;29669;55.706;37.656;2023-01-30T06:19:08;12.48;;;5.13;;
43813;SDS011;29669;55.706;37.656;2023-01-30T06:21:36;16.75;;;6.22;;
43813;SDS011;29669;55.706;37.656;2023-01-30T06:24:04;8.70;;;4.88;;
43813;SDS011;29669;55.706;37.656;2023-01-30T06:26:52;14.27;;;6.47;;
43813;SDS011;29669;55.706;37.656;2023-01-30T06:29:21;9.90;;;5.53;;
43813;SDS011;29669;55.706;37.656;2023-01-30T06:31:49;19.35;;;6.80;;
43813;SDS011;29669;55.706;37.656;2023-01-30T06:34:16;12.70;;;6.63;;
43813;SDS011;29669;55.706;37.656;2023-01-30T06:36:46;11.10;;;5.82;;
43813;SDS011;29669;55.706;37.656;2023-01-30T06:39:14;10.90;;;5.35;;
43813;SDS011;29669;55.706;37.656;2023-01-30T06:41:44;10.48;;;5.70;;
43813;SDS011;29669;55.706;37.656;2023-01-30T06:44:14;9.93;;;5.75;;
43813;SDS011;29669;55.706;37.656;2023-01-30T06:46:41;11.38;;;5.13;;
43813;SDS011;29669;55.706;37.656;2023-01-30T06:49:09;9.60;;;5.50;;
43813;SDS011;29669;55.706;37.656;2023-01-30T06:51:36;13.82;;;6.93;;
43813;SDS011;29669;55.706;37.656;2023-01-30T06:54:05;13.82;;;5.38;;
43813;SDS011;29669;55.706;37.656;2023-01-30T06:56:32;10.35;;;5.60;;
43813;SDS011;29669;55.706;37.656;2023-01-30T06:59:02;13.05;;;4.93;;
43813;SDS011;29669;55.706;37.656;2023-01-30T07:01:30;14.55;;;5.20;;
43813;SDS011;29669;55.706;37.656;2023-01-30T07:03:59;13.20;;;6.13;;
43813;SDS011;29669;55.706;37.656;2023-01-30T07:06:27;10.80;;;5.43;;
43813;SDS011;29669;55.706;37.656;2023-01-30T07:08:55;8.98;;;5.90;;
43813;SDS011;29669;55.706;37.656;2023-01-30T07:11:24;13.35;;;5.78;;
43813;SDS011;29669;55.706;37.656;2023-01-30T07:13:52;13.35;;;6.15;;
43813;SDS011;29669;55.706;37.656;2023-01-30T07:16:20;12.00;;;6.20;;
43813;SDS011;29669;55.706;37.656;2023-01-30T07:18:50;10.68;;;5.28;;
43813;SDS011;29669;55.706;37.656;2023-01-30T07:21:17;12.07;;;5.28;;
43813;SDS011;29669;55.706;37.656;2023-01-30T07:23:45;8.98;;;4.70;;
43813;SDS011;29669;55.706;37.656;2023-01-30T07:26:19;11.93;;;5.15;;
43813;SDS011;29669;55.706;37.656;2023-01-30T07:28:47;13.55;;;4.85;;
43813;SDS011;29669;55.706;37.656;2023-01-30T07:31:14;9.60;;;4.63;;
43813;SDS011;29669;55.706;37.656;2023-01-30T07:33:44;8.30;;;4.78;;
43813;SDS011;29669;55.706;37.656;2023-01-30T07:36:12;9.75;;;4.63;;
43813;SDS011;29669;55.706;37.656;2023-01-30T07:38:43;12.95;;;5.82;;
43813;SDS011;29669;55.706;37.656;2023-01-30T07:41:29;10.70;;;4.90;;
43813;SDS011;29669;55.706;37.656;2023-01-30T07:43:57;9.90;;;4.60;;
43813;SDS011;29669;55.706;37.656;2023-01-30T07:46:25;9.27;;;4.55;;
43813;SDS011;29669;55.706;37.656;2023-01-30T07:48:53;8.40;;;4.45;;
43813;SDS011;29669;55.706;37.656;2023-01-30T07:51:32;17.90;;;6.95;;
43813;SDS011;29669;55.706;37.656;2023-01-30T07:54:00;11.57;;;5.35;;
43813;SDS011;29669;55.706;37.656;2023-01-30T07:56:29;12.20;;;4.70;;
43813;SDS011;29669;55.706;37.656;2023-01-30T07:58:57;12.45;;;5.45;;
43813;SDS011;29669;55.706;37.656;2023-01-30T08:01:25;9.75;;;4.95;;
43813;SDS011;29669;55.706;37.656;2023-01-30T08:03:52;7.40;;;4.82;;
43813;SDS011;29669;55.706;37.656;2023-01-30T08:06:23;12.18;;;5.35;;
43813;SDS011;29669;55.706;37.656;2023-01-30T08:08:50;10.00;;;4.97;;
43813;SDS011;29669;55.706;37.656;2023-01-30T08:11:18;10.48;;;4.95;;
43813;SDS011;29669;55.706;37.656;2023-01-30T08:13:46;9.23;;;5.18;;
43813;SDS011;29669;55.706;37.656;2023-01-30T08:16:13;11.35;;;4.47;;
43813;SDS011;29669;55.706;37.656;2023-01-30T08:18:41;9.57;;;5.32;;
43813;SDS011;29669;55.706;37.656;2023-01-30T08:21:08;9.57;;;5.53;;
43813;SDS011;29669;55.706;37.656;2023-01-30T08:23:36;7.30;;;3.90;;
43813;SDS011;29669;55.706;37.656;2023-01-30T08:26:03;15.10;;;5.53;;
43813;SDS011;29669;55.706;37.656;2023-01-30T08:28:34;13.65;;;5.30;;
43813;SDS011;29669;55.706;37.656;2023-01-30T08:31:07;8.05;;;4.43;;
43813;SDS011;29669;55.706;37.656;2023-01-30T08:33:34;8.98;;;5.22;;
43813;SDS011;29669;55.706;37.656;2023-01-30T08:36:02;9.52;;;4.50;;
43813;SDS011;29669;55.706;37.656;2023-01-30T08:38:30;10.93;;;5.30;;
43813;SDS011;29669;55.706;37.656;2023-01-30T08:40:57;10.20;;;4.65;;
43813;SDS011;29669;55.706;37.656;2023-01-30T08:43:31;11.38;;;4.97;;
43813;SDS011;29669;55.706;37.656;2023-01-30T08:45:59;10.35;;;4.63;;
43813;SDS011;29669;55.706;37.656;2023-01-30T08:48:27;10.50;;;4.82;;
43813;SDS011;29669;55.706;37.656;2023-01-30T08:51:02;11.27;;;5.15;;
43813;SDS011;29669;55.706;37.656;2023-01-30T08:53:30;12.30;;;4.95;;
43813;SDS011;29669;55.706;37.656;2023-01-30T08:55:58;12.15;;;5.05;;
43813;SDS011;29669;55.706;37.656;2023-01-30T08:58:28;10.07;;;4.70;;
43813;SDS011;29669;55.706;37.656;2023-01-30T09:00:56;9.25;;;4.88;;
43813;SDS011;29669;55.706;37.656;2023-01-30T09:03:37;12.90;;;5.25;;
43813;SDS011;29669;55.706;37.656;2023-01-30T09:06:07;9.95;;;4.88;;
43813;SDS011;29669;55.706;37.656;2023-01-30T09:08:42;7.28;;;4.35;;
43813;SDS011;29669;55.706;37.656;2023-01-30T09:11:10;9.15;;;4.53;;
43813;SDS011;29669;55.706;37.656;2023-01-30T09:13:38;6.75;;;4.78;;
43813;SDS011;29669;55.706;37.656;2023-01-30T09:16:10;13.00;;;4.68;;
43813;SDS011;29669;55.706;37.656;2023-01-30T09:18:39;13.68;;;5.00;;
43813;SDS011;29669;55.706;37.656;2023-01-30T09:21:17;8.43;;;4.82;;
43813;SDS011;29669;55.706;37.656;2023-01-30T09:23:50;10.18;;;5.03;;
43813;SDS011;29669;55.706;37.656;2023-01-30T09:26:22;8.13;;;4.50;;
43813;SDS011;29669;55.706;37.656;2023-01-30T09:28:50;8.80;;;4.95;;
43813;SDS011;29669;55.706;37.656;2023-01-30T09:31:17;6.60;;;4.03;;
43813;SDS011;29669;55.706;37.656;2023-01-30T09:33:45;7.78;;;4.72;;
43813;SDS011;29669;55.706;37.656;2023-01-30T09:36:16;8.13;;;4.38;;
43813;SDS011;29669;55.706;37.656;2023-01-30T09:38:44;10.43;;;5.60;;
43813;SDS011;29669;55.706;37.656;2023-01-30T09:41:26;8.93;;;4.40;;
43813;SDS011;29669;55.706;37.656;2023-01-30T09:47:11;8.35;;;5.10;;
43813;SDS011;29669;55.706;37.656;2023-01-30T09:49:55;9.82;;;4.15;;
43813;SDS011;29669;55.706;37.656;2023-01-30T09:55:29;8.57;;;4.20;;
43813;SDS011;29669;55.706;37.656;2023-01-30T09:58:12;8.57;;;4.32;;
43813;SDS011;29669;55.706;37.656;2023-01-30T10:00:50;9.55;;;4.63;;
43813;SDS011;29669;55.706;37.656;2023-01-30T10:03:48;8.27;;;4.88;;
43813;SDS011;29669;55.706;37.656;2023-01-30T10:06:13;9.23;;;5.28;;
43813;SDS011;29669;55.706;37.656;2023-01-30T10:30:46;9.07;;;4.75;;
43813;SDS011;29669;55.706;37.656;2023-01-30T10:33:21;7.63;;;4.72;;
43813;SDS011;29669;55.706;37.656;2023-01-30T10:38:54;9.40;;;5.20;;
43813;SDS011;29669;55.706;37.656;2023-01-30T10:41:35;9.35;;;5.22;;
43813;SDS011;29669;55.706;37.656;2023-01-30T10:44:09;10.70;;;5.40;;
43813;SDS011;29669;55.706;37.656;2023-01-30T11:03:08;11.38;;;5.43;;
43813;SDS011;29669;55.706;37.656;2023-01-30T11:05:48;10.95;;;5.38;;
43813;SDS011;29669;55.706;37.656;2023-01-30T11:10:51;12.90;;;5.18;;
43813;SDS011;29669;55.706;37.656;2023-01-30T11:13:21;8.23;;;4.78;;
43813;SDS011;29669;55.706;37.656;2023-01-30T11:15:54;11.55;;;5.13;;
43813;SDS011;29669;55.706;37.656;2023-01-30T11:18:22;24.75;;;4.65;;
43813;SDS011;29669;55.706;37.656;2023-01-30T11:24:19;8.18;;;4.70;;
43813;SDS011;29669;55.706;37.656;2023-01-30T11:26:51;9.27;;;5.45;;
43813;SDS011;29669;55.706;37.656;2023-01-30T11:29:29;9.55;;;4.32;;
43813;SDS011;29669;55.706;37.656;2023-01-30T11:32:03;10.82;;;4.55;;
43813;SDS011;29669;55.706;37.656;2023-01-30T11:34:32;9.48;;;4.60;;
43813;SDS011;29669;55.706;37.656;2023-01-30T11:37:46;11.95;;;5.97;;
43813;SDS011;29669;55.706;37.656;2023-01-30T11:39:58;10.18;;;4.95;;
43813;SDS011;29669;55.706;37.656;2023-01-30T11:42:46;8.63;;;5.10;;
43813;SDS011;29669;55.706;37.656;2023-01-30T11:45:17;11.55;;;4.78;;
43813;SDS011;29669;55.706;37.656;2023-01-30T11:47:51;9.57;;;4.43;;
43813;SDS011;29669;55.706;37.656;2023-01-30T11:50:46;7.15;;;4.43;;
43813;SDS011;29669;55.706;37.656;2023-01-30T11:58:50;9.30;;;4.80;;
43813;SDS011;29669;55.706;37.656;2023-01-30T12:01:28;9.27;;;4.60;;
43813;SDS011;29669;55.706;37.656;2023-01-30T12:04:01;12.85;;;4.95;;
43813;SDS011;29669;55.706;37.656;2023-01-30T12:06:35;12.27;;;5.18;;
43813;SDS011;29669;55.706;37.656;2023-01-30T12:09:05;9.20;;;4.90;;
43813;SDS011;29669;55.706;37.656;2023-01-30T12:11:55;10.55;;;5.15;;
43813;SDS011;29669;55.706;37.656;2023-01-30T12:14:44;12.50;;;4.68;;
43813;SDS011;29669;55.706;37.656;2023-01-30T12:20:16;9.88;;;4.80;;
43813;SDS011;29669;55.706;37.656;2023-01-30T12:25:35;8.98;;;4.50;;
43813;SDS011;29669;55.706;37.656;2023-01-30T12:30:47;6.90;;;4.32;;
43813;SDS011;29669;55.706;37.656;2023-01-30T12:33:28;10.60;;;4.65;;
43813;SDS011;29669;55.706;37.656;2023-01-30T12:41:20;7.85;;;4.03;;
43813;SDS011;29669;55.706;37.656;2023-01-30T12:44:04;6.90;;;4.38;;
43813;SDS011;29669;55.706;37.656;2023-01-30T12:55:23;6.65;;;3.83;;
43813;SDS011;29669;55.706;37.656;2023-01-30T12:57:59;9.27;;;4.03;;
43813;SDS011;29669;55.706;37.656;2023-01-30T13:00:31;11.93;;;4.37;;
43813;SDS011;29669;55.706;37.656;2023-01-30T13:03:42;7.80;;;4.03;;
43813;SDS011;29669;55.706;37.656;2023-01-30T13:11:52;7.40;;;4.00;;
43813;SDS011;29669;55.706;37.656;2023-01-30T13:20:19;6.78;;;3.95;;
43813;SDS011;29669;55.706;37.656;2023-01-30T13:26:06;9.30;;;3.72;;
43813;SDS011;29669;55.706;37.656;2023-01-30T13:28:34;6.65;;;3.95;;
43813;SDS011;29669;55.706;37.656;2023-01-30T13:33:38;8.38;;;3.47;;
43813;SDS011;29669;55.706;37.656;2023-01-30T13:36:24;8.23;;;3.80;;
43813;SDS011;29669;55.706;37.656;2023-01-30T13:39:15;7.05;;;4.03;;
43813;SDS011;29669;55.706;37.656;2023-01-30T13:44:26;10.10;;;4.13;;
43813;SDS011;29669;55.706;37.656;2023-01-30T13:46:58;6.15;;;3.67;;
43813;SDS011;29669;55.706;37.656;2023-01-30T13:49:41;7.70;;;3.88;;
43813;SDS011;29669;55.706;37.656;2023-01-30T13:55:05;7.95;;;3.80;;
43813;SDS011;29669;55.706;37.656;2023-01-30T14:00:33;8.57;;;3.88;;
43813;SDS011;29669;55.706;37.656;2023-01-30T14:11:32;9.05;;;4.20;;
43813;SDS011;29669;55.706;37.656;2023-01-30T14:16:46;6.57;;;4.28;;
43813;SDS011;29669;55.706;37.656;2023-01-30T14:19:31;9.77;;;4.93;;
43813;SDS011;29669;55.706;37.656;2023-01-30T14:22:26;7.38;;;4.18;;
43813;SDS011;29669;55.706;37.656;2023-01-30T14:32:57;8.02;;;3.75;;
43813;SDS011;29669;55.706;37.656;2023-01-30T14:35:32;5.25;;;3.92;;
43813;SDS011;29669;55.706;37.656;2023-01-30T14:38:06;6.30;;;3.90;;
43813;SDS011;29669;55.706;37.656;2023-01-30T14:40:37;8.35;;;3.55;;
43813;SDS011;29669;55.706;37.656;2023-01-30T14:45:50;6.68;;;4.20;;
43813;SDS011;29669;55.706;37.656;2023-01-30T14:57:02;5.35;;;3.10;;
43813;SDS011;29669;55.706;37.656;2023-01-30T15:00:14;10.95;;;4.63;;
43813;SDS011;29669;55.706;37.656;2023-01-30T15:02:56;5.80;;;2.55;;
43813;SDS011;29669;55.706;37.656;2023-01-30T15:05:30;4.57;;;2.42;;
43813;SDS011;29669;55.706;37.656;2023-01-30T15:10:48;6.03;;;3.15;;
43813;SDS011;29669;55.706;37.656;2023-01-30T15:22:08;6.63;;;3.38;;
43813;SDS011;29669;55.706;37.656;2023-01-30T15:33:26;7.07;;;2.95;;
43813;SDS011;29669;55.706;37.656;2023-01-30T15:36:16;7.43;;;3.38;;
43813;SDS011;29669;55.706;37.656;2023-01-30T15:38:57;3.92;;;2.70;;
43813;SDS011;29669;55.706;37.656;2023-01-30T15:41:28;11.13;;;2.90;;
43813;SDS011;29669;55.706;37.656;2023-01-30T15:46:52;6.85;;;3.10;;
43813;SDS011;29669;55.706;37.656;2023-01-30T15:49:37;4.50;;;2.75;;
43813;SDS011;29669;55.706;37.656;2023-01-30T15:52:16;5.88;;;3.25;;
43813;SDS011;29669;55.706;37.656;2023-01-30T15:54:46;4.97;;;3.00;;
43813;SDS011;29669;55.706;37.656;2023-01-30T15:57:24;4.75;;;3.67;;
43813;SDS011;29669;55.706;37.656;2023-01-30T16:00:06;3.08;;;2.33;;
43813;SDS011;29669;55.706;37.656;2023-01-30T16:02:40;4.63;;;2.65;;
43813;SDS011;29669;55.706;37.656;2023-01-30T16:07:40;6.03;;;3.20;;
43813;SDS011;29669;55.706;37.656;2023-01-30T16:10:12;6.03;;;3.38;;
43813;SDS011;29669;55.706;37.656;2023-01-30T16:12:40;4.70;;;3.22;;
43813;SDS011;29669;55.706;37.656;2023-01-30T16:15:14;4.13;;;3.10;;
43813;SDS011;29669;55.706;37.656;2023-01-30T16:17:49;4.18;;;2.80;;
43813;SDS011;29669;55.706;37.656;2023-01-30T16:20:23;4.85;;;3.10;;
43813;SDS011;29669;55.706;37.656;2023-01-30T16:22:51;5.30;;;2.92;;
43813;SDS011;29669;55.706;37.656;2023-01-30T16:25:23;4.55;;;2.80;;
43813;SDS011;29669;55.706;37.656;2023-01-30T16:27:53;5.10;;;2.47;;
43813;SDS011;29669;55.706;37.656;2023-01-30T16:30:22;3.92;;;2.80;;
43813;SDS011;29669;55.706;37.656;2023-01-30T16:32:54;3.53;;;2.65;;
43813;SDS011;29669;55.706;37.656;2023-01-30T16:37:53;3.38;;;2.65;;
43813;SDS011;29669;55.706;37.656;2023-01-30T16:40:29;4.53;;;2.63;;
43813;SDS011;29669;55.706;37.656;2023-01-30T16:43:18;2.67;;;2.05;;
43813;SDS011;29669;55.706;37.656;2023-01-30T16:45:57;3.75;;;2.40;;
43813;SDS011;29669;55.706;37.656;2023-01-30T16:49:00;4.07;;;2.83;;
43813;SDS011;29669;55.706;37.656;2023-01-30T16:51:33;4.88;;;2.70;;
43813;SDS011;29669;55.706;37.656;2023-01-30T16:54:02;6.45;;;3.25;;
43813;SDS011;29669;55.706;37.656;2023-01-30T16:56:31;4.45;;;2.17;;
43813;SDS011;29669;55.706;37.656;2023-01-30T16:59:00;11.63;;;3.00;;
43813;SDS011;29669;55.706;37.656;2023-01-30T17:01:36;4.65;;;2.38;;
43813;SDS011;29669;55.706;37.656;2023-01-30T17:04:07;5.22;;;2.70;;
43813;SDS011;29669;55.706;37.656;2023-01-30T17:06:39;3.15;;;2.35;;
43813;SDS011;29669;55.706;37.656;2023-01-30T17:11:58;5.75;;;2.10;;
43813;SDS011;29669;55.706;37.656;2023-01-30T17:14:26;6.47;;;2.42;;
43813;SDS011;29669;55.706;37.656;2023-01-30T17:17:02;4.53;;;2.65;;
43813;SDS011;29669;55.706;37.656;2023-01-30T17:19:34;3.47;;;2.10;;
43813;SDS011;29669;55.706;37.656;2023-01-30T17:22:03;3.65;;;2.72;;
43813;SDS011;29669;55.706;37.656;2023-01-30T17:24:37;4.32;;;2.58;;
43813;SDS011;29669;55.706;37.656;2023-01-30T17:27:04;3.25;;;2.08;;
43813;SDS011;29669;55.706;37.656;2023-01-30T17:29:32;3.42;;;2.10;;
43813;SDS011;29669;55.706;37.656;2023-01-30T17:34:46;4.75;;;2.88;;
43813;SDS011;29669;55.706;37.656;2023-01-30T17:37:14;4.75;;;2.72;;
43813;SDS011;29669;55.706;37.656;2023-01-30T17:39:43;3.85;;;2.30;;
43813;SDS011;29669;55.706;37.656;2023-01-30T17:42:13;2.88;;;1.95;;
43813;SDS011;29669;55.706;37.656;2023-01-30T17:44:43;3.13;;;2.08;;
43813;SDS011;29669;55.706;37.656;2023-01-30T17:47:11;3.92;;;2.42;;
43813;SDS011;29669;55.706;37.656;2023-01-30T17:49:38;2.65;;;2.05;;
43813;SDS011;29669;55.706;37.656;2023-01-30T17:52:06;2.70;;;2.25;;
43813;SDS011;29669;55.706;37.656;2023-01-30T17:54:33;4.00;;;2.33;;
43813;SDS011;29669;55.706;37.656;2023-01-30T17:57:02;3.92;;;2.20;;
43813;SDS011;29669;55.706;37.656;2023-01-30T17:59:31;4.15;;;2.30;;
43813;SDS011;29669;55.706;37.656;2023-01-30T18:02:00;2.95;;;1.98;;
43813;SDS011;29669;55.706;37.656;2023-01-30T18:04:28;3.22;;;2.22;;
43813;SDS011;29669;55.706;37.656;2023-01-30T18:07:03;4.03;;;2.30;;
43813;SDS011;29669;55.706;37.656;2023-01-30T18:09:32;3.88;;;2.42;;
43813;SDS011;29669;55.706;37.656;2023-01-30T18:12:00;4.10;;;2.30;;
43813;SDS011;29669;55.706;37.656;2023-01-30T18:14:30;4.22;;;2.50;;
43813;SDS011;29669;55.706;37.656;2023-01-30T18:16:58;3.03;;;2.30;;
43813;SDS011;29669;55.706;37.656;2023-01-30T18:19:28;5.00;;;2.20;;
43813;SDS011;29669;55.706;37.656;2023-01-30T18:21:55;5.70;;;2.95;;
43813;SDS011;29669;55.706;37.656;2023-01-30T18:24:24;3.03;;;1.83;;
43813;SDS011;29669;55.706;37.656;2023-01-30T18:26:51;3.83;;;2.20;;
43813;SDS011;29669;55.706;37.656;2023-01-30T18:29:19;3.10;;;2.10;;
43813;SDS011;29669;55.706;37.656;2023-01-30T18:31:46;4.35;;;2.33;;
43813;SDS011;29669;55.706;37.656;2023-01-30T18:34:14;3.70;;;2.17;;